Time;durP1;ratioP1;P1;durP2;ratioP2;P2;SDS_P1;SDS_P2;PMS_P1;PMS_P2;Temp;Humidity;BMP_temperature;BMP_pressure;BME280_temperature;BME280_humidity;BME280_pressure;Samples;Min_cycle;Max_cycle;Signal;HPM_P1;HPM_P2
2023/03/01 00:00:01;;;;;;;16.83;11.73;;;;;;;-1.10;83.96;102183.25;4984925;28;20089;-83
2023/03/01 00:02:27;;;;;;;16.50;11.65;;;;;;;-1.15;84.54;102185.09;4981825;28;20054;-82
2023/03/01 00:04:54;;;;;;;21.58;12.25;;;;;;;-1.19;84.53;102191.22;4981261;28;20067;-82
2023/03/01 00:07:22;;;;;;;17.15;12.32;;;;;;;-1.28;85.06;102195.75;4980582;28;20531;-82
2023/03/01 00:09:49;;;;;;;17.00;11.23;;;;;;;-1.16;85.72;102201.41;4980828;28;20047;-82
2023/03/01 00:12:16;;;;;;;18.63;12.00;;;;;;;-1.22;85.53;102191.28;4981171;28;20472;-83
2023/03/01 00:14:42;;;;;;;17.50;12.55;;;;;;;-1.28;85.83;102206.88;4986822;28;20129;-79
2023/03/01 00:17:09;;;;;;;18.48;12.52;;;;;;;-1.29;86.42;102212.88;4991722;28;20086;-82
2023/03/01 00:19:36;;;;;;;19.52;12.45;;;;;;;-1.32;86.15;102212.97;4992332;28;20046;-80
2023/03/01 00:22:03;;;;;;;20.83;13.18;;;;;;;-1.24;86.17;102207.63;4993626;28;20050;-81
2023/03/01 00:24:31;;;;;;;17.25;12.10;;;;;;;-1.32;86.75;102207.84;4993036;28;20054;-80
2023/03/01 00:26:57;;;;;;;19.42;12.48;;;;;;;-1.23;86.37;102207.59;4987212;28;20516;-80
2023/03/01 00:29:24;;;;;;;16.55;11.93;;;;;;;-1.33;86.57;102203.56;4985077;28;20073;-80
2023/03/01 00:31:51;;;;;;;20.08;13.05;;;;;;;-1.40;86.68;102195.19;4979405;28;20079;-79
2023/03/01 00:34:18;;;;;;;16.58;11.20;;;;;;;-1.50;86.68;102198.91;4979521;28;20070;-81
2023/03/01 00:36:44;;;;;;;19.67;12.43;;;;;;;-1.55;87.08;102205.91;4979672;28;20054;-81
2023/03/01 00:39:13;;;;;;;20.63;12.60;;;;;;;-1.54;87.57;102205.00;4979456;28;20078;-81
2023/03/01 00:41:41;;;;;;;20.38;12.13;;;;;;;-1.54;87.55;102204.16;4980336;28;20085;-81
2023/03/01 00:44:08;;;;;;;17.45;12.32;;;;;;;-1.61;87.71;102202.66;4979910;28;20078;-81
2023/03/01 00:46:35;;;;;;;20.02;13.10;;;;;;;-1.68;88.18;102200.22;4978742;28;20086;-80
2023/03/01 00:49:02;;;;;;;21.77;13.13;;;;;;;-1.68;88.12;102202.78;4981816;28;20075;-80
2023/03/01 00:51:30;;;;;;;18.25;12.32;;;;;;;-1.57;88.05;102204.25;4984594;28;20133;-82
2023/03/01 00:53:58;;;;;;;19.58;12.45;;;;;;;-1.58;88.41;102194.88;4980052;28;20409;-81
2023/03/01 00:56:25;;;;;;;19.58;13.15;;;;;;;-1.57;88.47;102186.28;4979055;28;20130;-82
2023/03/01 00:58:53;;;;;;;21.08;14.05;;;;;;;-1.64;88.19;102184.75;4978973;28;20110;-81
2023/03/01 01:01:21;;;;;;;21.67;13.82;;;;;;;-1.73;88.59;102188.41;4970290;28;20074;-79
2023/03/01 01:03:50;;;;;;;22.55;12.73;;;;;;;-1.85;88.44;102198.97;4978986;28;20050;-81
2023/03/01 01:06:18;;;;;;;21.75;13.68;;;;;;;-1.97;88.79;102192.44;4978880;28;20073;-80
2023/03/01 01:08:45;;;;;;;20.42;14.25;;;;;;;-1.99;89.22;102183.94;4978848;28;20453;-81
2023/03/01 01:11:13;;;;;;;19.80;13.70;;;;;;;-2.03;89.52;102182.31;4977904;28;20047;-79
2023/03/01 01:13:40;;;;;;;22.20;14.38;;;;;;;-2.04;89.81;102185.78;4977353;28;20130;-79
2023/03/01 01:16:09;;;;;;;23.00;13.90;;;;;;;-2.07;90.51;102175.59;4977203;28;20057;-80
2023/03/01 01:18:36;;;;;;;23.70;14.43;;;;;;;-2.00;90.09;102174.56;4978033;28;20082;-81
2023/03/01 01:21:08;;;;;;;25.50;15.32;;;;;;;-1.98;90.15;102167.66;4978130;28;20583;-81
2023/03/01 01:23:34;;;;;;;21.50;14.75;;;;;;;-1.98;90.65;102159.13;4978912;28;20501;-80
2023/03/01 01:26:05;;;;;;;21.98;13.65;;;;;;;-1.96;90.03;102158.22;4977215;28;20146;-81
2023/03/01 01:28:32;;;;;;;19.50;13.23;;;;;;;-1.93;90.02;102153.00;4978250;28;20058;-80
2023/03/01 01:30:59;;;;;;;20.48;13.80;;;;;;;-1.92;90.05;102144.44;4978959;28;20050;-82
2023/03/01 01:33:27;;;;;;;21.85;13.73;;;;;;;-1.95;90.52;102143.66;4981425;28;20441;-80
2023/03/01 01:35:54;;;;;;;20.00;13.02;;;;;;;-1.97;89.69;102145.44;4979369;28;20054;-80
2023/03/01 01:38:21;;;;;;;22.17;13.23;;;;;;;-1.97;90.12;102140.28;4971672;28;20054;-81
2023/03/01 01:40:49;;;;;;;21.58;13.68;;;;;;;-2.06;90.32;102138.78;4979969;28;20058;-83
2023/03/01 01:43:20;;;;;;;21.48;13.48;;;;;;;-2.15;90.40;102131.34;4981188;28;20131;-82
2023/03/01 01:45:47;;;;;;;19.70;12.73;;;;;;;-2.25;90.77;102135.00;4978234;28;20054;-80
2023/03/01 01:48:19;;;;;;;21.75;13.77;;;;;;;-2.40;90.86;102129.38;4978417;28;20497;-80
2023/03/01 01:50:55;;;;;;;21.05;13.65;;;;;;;-2.51;90.94;102122.81;4978752;28;20142;-81
2023/03/01 01:53:22;;;;;;;20.58;12.98;;;;;;;-2.60;91.28;102123.88;4978476;28;20078;-79
2023/03/01 01:55:54;;;;;;;21.60;13.43;;;;;;;-2.69;91.40;102118.97;4978427;28;20236;-80
2023/03/01 01:58:22;;;;;;;21.27;13.27;;;;;;;-2.72;91.56;102114.75;4970310;28;20086;-80
2023/03/01 02:00:50;;;;;;;20.00;12.93;;;;;;;-2.76;91.60;102114.84;4977761;28;20432;-79
2023/03/01 02:03:21;;;;;;;21.65;13.93;;;;;;;-2.85;91.77;102112.53;4978651;28;20046;-80
2023/03/01 02:05:55;;;;;;;23.63;13.50;;;;;;;-2.93;92.14;102109.28;4979023;28;20462;-79
2023/03/01 02:08:26;;;;;;;18.65;13.05;;;;;;;-2.97;92.93;102103.38;4974188;28;20539;-80
2023/03/01 02:10:55;;;;;;;18.45;13.32;;;;;;;-2.99;92.99;102102.56;4978984;28;20153;-80
2023/03/01 02:13:22;;;;;;;22.00;13.85;;;;;;;-3.03;93.37;102104.34;4971250;28;20046;-81
2023/03/01 02:15:49;;;;;;;20.33;13.85;;;;;;;-3.03;93.41;102103.50;4978126;28;20051;-80
2023/03/01 02:18:21;;;;;;;21.65;13.38;;;;;;;-3.05;93.52;102097.56;4978347;28;20601;-80
2023/03/01 02:21:04;;;;;;;19.90;13.45;;;;;;;-3.11;93.97;102096.00;4979279;28;20093;-81
2023/03/01 02:23:30;;;;;;;;;;;;;;;-3.11;94.18;102102.84;4980693;28;20141;-81
2023/03/01 02:26:07;;;;;;;22.88;13.90;;;;;;;-3.12;94.03;102106.25;4980113;28;19968;-81
2023/03/01 02:28:37;;;;;;;21.52;13.93;;;;;;;-3.19;94.23;102097.88;4982640;28;20409;-81
2023/03/01 02:33:52;;;;;;;25.15;14.48;;;;;;;-3.05;94.40;102110.38;4978367;28;20061;-81
2023/03/01 02:36:22;;;;;;;21.25;13.85;;;;;;;-2.87;94.46;102114.28;4977974;28;20126;-81
2023/03/01 02:38:52;;;;;;;20.55;13.88;;;;;;;-2.76;94.20;102115.69;4977484;28;20066;-81
2023/03/01 02:41:21;;;;;;;21.92;13.63;;;;;;;-2.68;94.25;102110.38;4978235;28;20282;-80
2023/03/01 02:43:49;;;;;;;22.65;13.88;;;;;;;-2.64;93.99;102113.72;4985257;28;20055;-81
2023/03/01 02:46:18;;;;;;;21.27;13.55;;;;;;;-2.62;93.76;102112.81;4978369;28;20074;-81
2023/03/01 02:48:47;;;;;;;21.17;13.60;;;;;;;-2.58;93.14;102106.75;4979271;28;20054;-82
2023/03/01 02:51:27;;;;;;;19.05;12.95;;;;;;;-2.70;92.93;102101.91;4978951;28;20385;-82
2023/03/01 02:54:06;;;;;;;23.88;13.73;;;;;;;-2.64;93.20;102104.31;4980104;28;20424;-82
2023/03/01 02:56:33;;;;;;;21.05;13.18;;;;;;;-2.57;93.21;102107.59;4982217;28;20118;-82
2023/03/01 02:59:02;;;;;;;20.48;12.60;;;;;;;-2.58;92.38;102106.75;4982358;28;20050;-82
2023/03/01 03:01:36;;;;;;;19.00;12.48;;;;;;;-2.61;92.05;102105.97;4978715;28;20155;-82
2023/03/01 03:04:04;;;;;;;20.63;12.80;;;;;;;-2.78;92.54;102103.78;4979499;28;20065;-81
2023/03/01 03:06:30;;;;;;;18.20;12.77;;;;;;;-2.94;92.37;102090.50;4980937;28;20129;-80
2023/03/01 03:08:57;;;;;;;18.58;12.90;;;;;;;-3.08;92.29;102083.13;4991214;28;20061;-81
2023/03/01 03:11:24;;;;;;;20.58;13.07;;;;;;;-3.19;92.40;102081.66;4988854;28;20538;-81
2023/03/01 03:13:51;;;;;;;20.30;13.55;;;;;;;-3.22;92.89;102077.44;4993876;28;20141;-81
2023/03/01 03:16:20;;;;;;;22.40;13.63;;;;;;;-3.23;93.45;102078.31;4992502;28;20051;-80
2023/03/01 03:18:46;;;;;;;21.55;13.10;;;;;;;-3.29;93.42;102070.78;4983530;28;20074;-81
2023/03/01 03:21:14;;;;;;;22.08;13.88;;;;;;;-3.36;93.61;102079.47;4981540;28;20082;-80
2023/03/01 03:23:41;;;;;;;21.63;13.60;;;;;;;-3.28;94.08;102077.56;4980413;28;20486;-81
2023/03/01 03:26:07;;;;;;;21.90;13.70;;;;;;;-3.33;94.26;102074.31;4980921;28;20482;-81
2023/03/01 03:28:39;;;;;;;19.40;12.40;;;;;;;-3.41;94.30;102083.84;4982585;28;20061;-82
2023/03/01 03:31:07;;;;;;;24.33;14.60;;;;;;;-3.49;94.57;102078.03;4982169;28;20055;-82
2023/03/01 03:33:35;;;;;;;26.80;14.32;;;;;;;-3.48;94.60;102079.72;4984947;28;20432;-81
2023/03/01 03:36:02;;;;;;;28.45;15.75;;;;;;;-3.55;95.20;102073.88;4984994;28;20508;-82
2023/03/01 03:38:28;;;;;;;21.70;14.35;;;;;;;-3.62;95.04;102074.03;4986131;28;20488;-81
2023/03/01 03:41:02;;;;;;;24.08;14.52;;;;;;;-3.66;95.24;102078.38;4993507;28;20085;-82
2023/03/01 03:43:29;;;;;;;22.15;13.77;;;;;;;-3.64;95.78;102080.91;4993475;28;20525;-81
2023/03/01 03:45:56;;;;;;;22.10;13.88;;;;;;;-3.65;95.75;102071.53;4992067;28;20081;-80
2023/03/01 03:48:24;;;;;;;23.23;14.68;;;;;;;-3.73;95.83;102067.41;4992027;28;20488;-81
2023/03/01 03:50:54;;;;;;;23.13;14.77;;;;;;;-3.79;96.04;102071.84;4993213;28;20050;-79
2023/03/01 03:53:22;;;;;;;24.17;14.45;;;;;;;-3.78;96.27;102070.97;4986811;28;20055;-82
2023/03/01 03:55:51;;;;;;;24.17;14.77;;;;;;;-3.81;96.27;102061.63;4995248;28;20058;-82
2023/03/01 03:58:19;;;;;;;25.23;14.82;;;;;;;-3.84;96.29;102060.84;4992692;28;20051;-82
2023/03/01 04:00:47;;;;;;;22.15;14.38;;;;;;;-3.85;96.62;102065.13;4986832;28;20105;-82
2023/03/01 04:03:17;;;;;;;22.42;14.30;;;;;;;-3.88;96.92;102060.06;4987105;28;20070;-82
2023/03/01 04:05:43;;;;;;;22.58;14.95;;;;;;;-3.76;96.65;102067.47;4985368;28;20109;-80
2023/03/01 04:08:12;;;;;;;25.27;15.43;;;;;;;-3.82;96.95;102054.84;4982323;28;20119;-80
2023/03/01 04:10:40;;;;;;;24.10;14.10;;;;;;;-3.85;96.85;102060.00;4979048;28;20174;-81
2023/03/01 04:13:10;;;;;;;23.38;15.02;;;;;;;-3.91;96.87;102041.38;4978398;28;20102;-81
2023/03/01 04:15:37;;;;;;;24.48;15.23;;;;;;;-3.91;97.38;102056.72;4978544;28;20192;-83
2023/03/01 04:18:04;;;;;;;21.52;14.88;;;;;;;-3.90;97.15;102051.56;4978678;28;20050;-81
2023/03/01 04:20:34;;;;;;;25.20;14.65;;;;;;;-3.92;97.15;102040.53;4978458;28;20497;-81
2023/03/01 04:23:10;;;;;;;23.20;14.73;;;;;;;-3.95;97.17;102037.19;4978309;28;20119;-81
2023/03/01 04:25:40;;;;;;;24.98;14.70;;;;;;;-3.83;97.17;102036.97;4979040;28;20182;-80
2023/03/01 04:28:07;;;;;;;25.13;15.05;;;;;;;-3.74;97.08;102041.88;4979128;28;20424;-81
2023/03/01 04:30:35;;;;;;;25.02;14.43;;;;;;;-3.70;97.31;102046.88;4980698;28;20050;-79
2023/03/01 04:33:03;;;;;;;23.65;14.65;;;;;;;-3.69;97.27;102033.22;4979846;28;20433;-81
2023/03/01 04:35:30;;;;;;;21.20;14.00;;;;;;;-3.73;97.09;102041.00;4980346;28;20057;-79
2023/03/01 04:37:57;;;;;;;23.00;14.77;;;;;;;-3.81;97.07;102043.72;4978423;28;20061;-79
2023/03/01 04:40:24;;;;;;;22.95;14.75;;;;;;;-3.79;97.34;102044.53;4980685;28;20054;-81
2023/03/01 04:42:52;;;;;;;24.83;16.02;;;;;;;-3.72;97.34;102046.06;4981289;28;20119;-81
2023/03/01 04:45:21;;;;;;;25.63;15.20;;;;;;;-3.68;97.62;102047.72;4982023;28;20066;-81
2023/03/01 04:47:48;;;;;;;22.98;14.55;;;;;;;-3.71;97.77;102047.75;4982626;28;20500;-82
2023/03/01 04:50:20;;;;;;;23.15;15.05;;;;;;;-3.73;97.46;102044.38;4980801;28;20106;-82
2023/03/01 04:52:47;;;;;;;26.95;14.98;;;;;;;-3.80;97.20;102042.84;4981749;28;20043;-81
2023/03/01 04:55:14;;;;;;;23.60;14.80;;;;;;;-3.76;97.71;102038.50;4981116;28;20050;-82
2023/03/01 04:57:41;;;;;;;29.55;15.43;;;;;;;-3.81;97.53;102027.53;4981515;28;20134;-82
2023/03/01 05:00:20;;;;;;;23.80;15.00;;;;;;;-3.87;97.45;102032.78;4980898;28;20125;-82
2023/03/01 05:02:52;;;;;;;27.52;16.25;;;;;;;-3.98;97.83;102025.31;4981018;28;20113;-82
2023/03/01 05:05:20;;;;;;;26.55;15.38;;;;;;;-4.07;97.50;102028.88;4981132;28;20053;-82
2023/03/01 05:07:47;;;;;;;26.58;16.02;;;;;;;-4.11;97.66;102034.06;4980715;28;20412;-82
2023/03/01 05:10:13;;;;;;;26.17;16.65;;;;;;;-4.12;97.87;102027.28;4981575;28;20078;-83
2023/03/01 05:12:40;;;;;;;24.73;15.02;;;;;;;-4.17;98.07;102024.78;4980806;28;20082;-82
2023/03/01 05:15:09;;;;;;;24.10;15.43;;;;;;;-4.19;98.36;102021.44;4980250;28;20469;-81
2023/03/01 05:17:36;;;;;;;29.30;16.02;;;;;;;-4.19;98.23;102031.66;4975093;28;20131;-80
2023/03/01 05:20:07;;;;;;;32.25;17.05;;;;;;;-4.22;98.20;102026.59;4980149;28;20065;-82
2023/03/01 05:22:34;;;;;;;28.70;16.25;;;;;;;-4.25;98.21;102034.31;4980045;28;20050;-82
2023/03/01 05:25:01;;;;;;;22.60;15.18;;;;;;;-4.29;98.37;102035.28;4979685;28;20051;-81
2023/03/01 05:27:27;;;;;;;24.15;15.45;;;;;;;-4.32;98.78;102024.25;4981304;28;20053;-83
2023/03/01 05:29:54;;;;;;;31.02;15.98;;;;;;;-4.38;98.56;102026.03;4983319;28;20050;-82
2023/03/01 05:32:22;;;;;;;25.38;16.25;;;;;;;-4.41;98.75;102033.75;4982708;28;20093;-82
2023/03/01 05:34:48;;;;;;;22.73;15.32;;;;;;;-4.42;98.95;102038.91;4981146;28;20532;-82
2023/03/01 05:37:15;;;;;;;23.48;14.68;;;;;;;-4.42;98.98;102041.47;4981714;28;20082;-80
2023/03/01 05:39:42;;;;;;;24.63;14.98;;;;;;;-4.44;99.10;102036.38;4985457;28;20082;-81
2023/03/01 05:42:11;;;;;;;24.15;15.38;;;;;;;-4.43;99.05;102034.66;4984885;28;20051;-80
2023/03/01 05:44:38;;;;;;;23.13;14.68;;;;;;;-4.36;99.51;102037.09;4983422;28;20074;-82
2023/03/01 05:47:05;;;;;;;25.23;15.05;;;;;;;-4.34;99.33;102024.28;4978595;28;20212;-80
2023/03/01 05:49:34;;;;;;;31.58;16.13;;;;;;;-4.39;99.33;102036.28;4980672;28;20121;-82
2023/03/01 05:52:01;;;;;;;21.92;14.70;;;;;;;-4.47;99.51;102028.75;4980968;28;20051;-82
2023/03/01 05:54:27;;;;;;;24.75;15.57;;;;;;;-4.48;99.45;102033.91;4981437;28;20119;-83
2023/03/01 05:56:54;;;;;;;29.88;16.40;;;;;;;-4.48;99.57;102032.19;4979185;28;20071;-82
2023/03/01 05:59:20;;;;;;;24.48;15.60;;;;;;;-4.52;99.74;102033.09;4979232;28;20137;-81
2023/03/01 06:01:47;;;;;;;27.13;16.00;;;;;;;-4.48;99.79;102033.91;4978759;28;20497;-80
2023/03/01 06:04:14;;;;;;;26.27;15.82;;;;;;;-4.51;99.71;102032.22;4979507;28;20512;-81
2023/03/01 06:06:42;;;;;;;28.80;16.40;;;;;;;-4.52;99.48;102027.16;4981023;28;20085;-81
2023/03/01 06:09:09;;;;;;;27.60;15.77;;;;;;;-4.52;99.80;102025.44;4982266;28;20093;-82
2023/03/01 06:11:37;;;;;;;36.35;15.80;;;;;;;-4.51;99.73;102024.56;4981497;28;20529;-81
2023/03/01 06:14:03;;;;;;;34.53;16.67;;;;;;;-4.51;100.00;102019.47;4978134;28;20253;-82
2023/03/01 06:16:30;;;;;;;33.38;17.33;;;;;;;-4.53;99.98;102025.47;4977956;28;20153;-81
2023/03/01 06:18:57;;;;;;;33.88;17.95;;;;;;;-4.50;99.94;102023.69;4977648;28;20138;-79
2023/03/01 06:21:23;;;;;;;30.00;17.35;;;;;;;-4.51;100.00;102027.13;4978616;28;20113;-80
2023/03/01 06:23:51;;;;;;;27.08;15.43;;;;;;;-4.50;100.00;102033.06;4978972;28;20118;-82
2023/03/01 06:26:18;;;;;;;35.72;16.52;;;;;;;-4.54;99.90;102029.72;4983540;28;20051;-80
2023/03/01 06:28:45;;;;;;;32.38;17.05;;;;;;;-4.55;100.00;102030.59;4985701;28;20137;-82
2023/03/01 06:31:12;;;;;;;31.63;16.92;;;;;;;-4.53;100.00;102030.56;4982481;28;20062;-81
2023/03/01 06:33:39;;;;;;;32.47;17.10;;;;;;;-4.57;100.00;102034.03;4990061;28;20050;-83
2023/03/01 06:36:06;;;;;;;42.95;19.48;;;;;;;-4.56;100.00;102031.47;4988550;28;20058;-80
2023/03/01 06:38:33;;;;;;;46.08;20.63;;;;;;;-4.47;100.00;102038.13;4987236;28;20063;-81
2023/03/01 06:41:01;;;;;;;47.55;21.95;;;;;;;-4.42;100.00;102037.19;4987506;28;20078;-83
2023/03/01 06:43:27;;;;;;;45.45;21.63;;;;;;;-4.33;100.00;102035.34;4980223;28;20432;-80
2023/03/01 06:45:54;;;;;;;44.97;19.77;;;;;;;-4.27;100.00;102035.25;4982780;28;20133;-82
2023/03/01 06:48:20;;;;;;;45.38;21.90;;;;;;;-4.25;100.00;102033.50;4982258;28;20101;-81
2023/03/01 06:50:47;;;;;;;51.90;22.70;;;;;;;-4.17;100.00;102031.63;4983234;28;20051;-81
2023/03/01 06:53:13;;;;;;;48.70;23.30;;;;;;;-4.02;100.00;102028.78;4986080;28;20106;-83
2023/03/01 06:55:40;;;;;;;42.85;22.70;;;;;;;-3.50;100.00;102025.19;4983953;28;20114;-82
2023/03/01 06:58:09;;;;;;;42.85;21.90;;;;;;;-2.87;99.83;102027.19;4984070;28;20053;-81
2023/03/01 07:00:36;;;;;;;36.33;21.10;;;;;;;-2.12;99.63;102019.25;4983171;28;20053;-81
2023/03/01 07:03:03;;;;;;;32.47;19.80;;;;;;;-1.20;98.10;102021.72;4983554;28;20090;-82
2023/03/01 07:05:30;;;;;;;29.67;20.00;;;;;;;-0.53;96.12;102015.28;4982551;28;20441;-82
2023/03/01 07:07:56;;;;;;;27.90;17.90;;;;;;;0.11;93.41;102013.03;4981096;28;20074;-81
2023/03/01 07:10:23;;;;;;;29.30;18.13;;;;;;;0.79;90.32;102007.03;4981218;28;20086;-81
2023/03/01 07:12:50;;;;;;;34.72;19.58;;;;;;;1.12;87.08;101988.53;4979679;28;20509;-79
2023/03/01 07:15:18;;;;;;;33.30;18.50;;;;;;;1.58;84.05;101972.81;4980528;28;20059;-81
2023/03/01 07:17:47;;;;;;;43.08;21.23;;;;;;;1.81;81.63;101960.66;4980508;28;20479;-80
2023/03/01 07:20:14;;;;;;;31.75;18.17;;;;;;;1.74;79.76;101960.09;4979431;28;20058;-79
2023/03/01 07:22:42;;;;;;;27.42;18.00;;;;;;;1.95;78.47;101950.53;4980572;28;20059;-80
2023/03/01 07:25:09;;;;;;;24.80;14.50;;;;;;;1.87;77.31;101952.66;4981061;28;20058;-80
2023/03/01 07:27:35;;;;;;;23.40;14.50;;;;;;;2.29;76.70;101940.38;4981284;28;20134;-81
2023/03/01 07:30:02;;;;;;;23.77;14.95;;;;;;;2.56;75.58;101937.38;4980256;28;20047;-81
2023/03/01 07:32:30;;;;;;;23.85;14.40;;;;;;;2.73;74.81;101934.84;4981535;28;20489;-82
2023/03/01 07:34:57;;;;;;;25.55;14.13;;;;;;;2.97;73.40;101923.28;4981448;28;20105;-81
2023/03/01 07:37:23;;;;;;;17.60;13.27;;;;;;;3.31;73.18;101930.19;4982075;28;20043;-81
2023/03/01 07:39:50;;;;;;;26.60;14.10;;;;;;;3.60;71.85;101918.38;4983146;28;20106;-81
2023/03/01 07:42:17;;;;;;;19.27;13.70;;;;;;;3.83;70.88;101918.91;4984253;28;20051;-81
2023/03/01 07:44:43;;;;;;;21.08;13.95;;;;;;;3.94;70.23;101921.75;4979530;28;20134;-79
2023/03/01 07:47:10;;;;;;;20.38;14.30;;;;;;;4.03;69.16;101925.63;4975568;28;20187;-80
2023/03/01 07:49:38;;;;;;;18.38;13.57;;;;;;;4.15;68.81;101923.19;4972714;28;20183;-81
2023/03/01 07:52:05;;;;;;;22.25;14.32;;;;;;;4.54;68.32;101916.75;4978293;28;20081;-81
2023/03/01 07:54:32;;;;;;;18.10;14.85;;;;;;;4.60;67.16;101916.41;4979252;28;20130;-80
2023/03/01 07:56:58;;;;;;;20.63;14.10;;;;;;;4.82;66.23;101918.59;4978516;28;20058;-80
2023/03/01 08:05:54;;;;;;;21.00;14.90;;;;;;;4.76;64.80;101921.53;4969275;23;20055;-79
2023/03/01 08:08:21;;;;;;;20.42;14.63;;;;;;;4.72;64.46;101913.13;4977861;28;20047;-80
2023/03/01 08:10:47;;;;;;;23.35;16.02;;;;;;;5.03;64.21;101908.75;4977565;28;20118;-78
2023/03/01 08:13:14;;;;;;;21.60;15.77;;;;;;;4.51;64.52;101929.88;4977038;28;20051;-81
2023/03/01 08:15:40;;;;;;;21.63;16.02;;;;;;;4.53;64.24;101925.44;4978009;28;20525;-81
2023/03/01 08:18:07;;;;;;;21.63;15.77;;;;;;;4.35;63.73;101922.09;4977403;28;20070;-78
2023/03/01 08:20:34;;;;;;;22.52;16.08;;;;;;;3.82;65.12;101925.00;4978899;28;20469;-79
2023/03/01 08:23:02;;;;;;;22.65;16.15;;;;;;;4.03;64.66;101926.44;4978379;28;20106;-79
2023/03/01 08:25:28;;;;;;;20.77;15.82;;;;;;;4.33;64.86;101924.78;4980425;28;20106;-80
2023/03/01 08:28:14;;;;;;;24.48;16.58;;;;;;;4.07;65.31;101921.94;4982207;28;20134;-80
2023/03/01 08:34:02;;;;;;;22.48;15.82;;;;;;;4.27;65.54;101940.66;4963185;28;20082;-82
2023/03/01 08:36:30;;;;;;;22.70;15.65;;;;;;;3.78;65.26;101941.63;4978825;28;20191;-80
2023/03/01 08:38:59;;;;;;;26.77;16.73;;;;;;;3.08;67.12;101946.03;4977696;28;20196;-80
2023/03/01 08:41:27;;;;;;;23.50;16.02;;;;;;;3.75;67.10;101946.97;4978879;28;20078;-80
2023/03/01 08:44:02;;;;;;;28.17;16.85;;;;;;;4.73;65.70;101943.28;4983431;28;20122;-80
2023/03/01 08:53:50;;;;;;;20.63;15.57;;;;;;;4.89;63.54;101887.03;4848601;29;20061;-78
2023/03/01 08:56:52;;;;;;;26.45;16.27;;;;;;;4.41;63.79;101926.09;4977203;28;20122;-80
2023/03/01 08:59:51;;;;;;;26.77;16.48;;;;;;;3.57;65.02;101905.59;4982329;28;20082;-80
2023/03/01 09:05:25;;;;;;;23.55;15.68;;;;;;;3.94;65.11;101914.81;4959801;28;20058;-80
2023/03/01 09:07:51;;;;;;;22.23;16.90;;;;;;;4.31;65.16;101933.53;4978355;28;20070;-81
2023/03/01 09:10:18;;;;;;;23.58;14.98;;;;;;;3.66;65.04;101925.81;4986754;28;20092;-79
2023/03/01 09:12:46;;;;;;;23.10;16.58;;;;;;;3.25;66.46;101935.72;4987336;28;20136;-80
2023/03/01 09:15:13;;;;;;;24.15;16.50;;;;;;;3.24;67.58;101938.38;4992705;28;20480;-79
2023/03/01 09:17:39;;;;;;;42.08;18.23;;;;;;;3.38;67.99;101938.47;4992693;28;20081;-79
2023/03/01 09:20:07;;;;;;;26.67;16.85;;;;;;;2.96;68.31;101938.88;4991819;28;20050;-79
2023/03/01 09:22:34;;;;;;;25.70;17.33;;;;;;;3.00;69.01;101933.50;4986353;28;20137;-78
2023/03/01 09:25:01;;;;;;;24.92;16.67;;;;;;;3.20;68.85;101929.94;4983792;28;20152;-77
2023/03/01 09:27:28;;;;;;;24.70;17.08;;;;;;;3.21;68.82;101925.59;4985239;28;20484;-78
2023/03/01 09:29:57;;;;;;;23.45;16.67;;;;;;;3.07;68.69;101925.44;4989049;28;20134;-79
2023/03/01 09:32:23;;;;;;;26.88;16.73;;;;;;;2.73;69.13;101919.34;4985538;28;20050;-79
2023/03/01 09:35:04;;;;;;;29.38;16.25;;;;;;;3.03;69.13;101926.50;4983900;28;20103;-79
2023/03/01 09:37:32;;;;;;;26.52;16.13;;;;;;;3.05;68.48;101917.75;4984046;28;20073;-78
2023/03/01 09:39:59;;;;;;;23.77;15.48;;;;;;;3.23;67.42;101909.06;4984588;28;20058;-80
2023/03/01 09:42:26;;;;;;;21.70;12.50;;;;;;;3.08;66.63;101893.50;4991002;28;20121;-80
2023/03/01 09:44:58;;;;;;;21.98;13.38;;;;;;;3.19;65.85;101886.03;4998305;28;20051;-79
2023/03/01 09:47:28;;;;;;;21.23;13.63;;;;;;;3.02;65.24;101879.13;4994631;28;20082;-81
2023/03/01 09:50:05;;;;;;;20.92;13.38;;;;;;;3.03;65.92;101880.78;4993221;28;20074;-80
2023/03/01 09:52:40;;;;;;;19.48;13.20;;;;;;;3.31;65.63;101877.63;4998540;28;20077;-79
2023/03/01 09:55:12;;;;;;;17.95;13.00;;;;;;;3.38;65.16;101880.72;4998281;28;20077;-79
2023/03/01 09:57:45;;;;;;;18.47;12.60;;;;;;;3.23;65.20;101867.69;4989566;28;20066;-79
2023/03/01 10:00:37;;;;;;;19.08;13.38;;;;;;;3.27;65.04;101873.53;4988078;28;20102;-81
2023/03/01 10:03:16;;;;;;;20.77;12.63;;;;;;;3.39;64.67;101867.72;4995105;28;20078;-81
2023/03/01 10:05:50;;;;;;;19.02;12.32;;;;;;;3.59;64.36;101869.28;5000730;28;20352;-78
2023/03/01 10:08:38;;;;;;;18.98;13.48;;;;;;;3.55;63.68;101863.41;4993022;28;20145;-80
2023/03/01 10:11:06;;;;;;;24.83;13.23;;;;;;;3.65;64.27;101864.59;4990779;28;20074;-80
2023/03/01 10:13:42;;;;;;;19.65;13.50;;;;;;;3.65;63.63;101868.94;4990952;28;20054;-79
2023/03/01 10:16:17;;;;;;;22.90;13.48;;;;;;;3.72;63.75;101859.09;4989816;28;20051;-78
2023/03/01 10:18:48;;;;;;;18.20;11.85;;;;;;;3.95;63.13;101869.88;4991750;28;20054;-77
2023/03/01 10:21:18;;;;;;;18.30;12.93;;;;;;;3.75;63.01;101864.13;5000143;28;20394;-78
2023/03/01 10:23:45;;;;;;;20.45;13.00;;;;;;;3.64;62.81;101854.34;4997637;28;20410;-79
2023/03/01 10:26:39;;;;;;;22.63;13.43;;;;;;;3.73;62.93;101846.09;4995949;28;20089;-80
2023/03/01 10:29:11;;;;;;;18.95;12.73;;;;;;;3.96;62.78;101839.63;4992636;28;20081;-79
2023/03/01 10:31:43;;;;;;;19.20;13.07;;;;;;;4.02;62.62;101825.53;4985349;28;20051;-79
2023/03/01 10:34:17;;;;;;;17.60;12.27;;;;;;;3.86;62.22;101836.72;4982488;28;20142;-79
2023/03/01 10:36:45;;;;;;;19.92;12.90;;;;;;;3.84;61.39;101835.97;4989264;28;20141;-80
2023/03/01 10:39:16;;;;;;;18.45;12.70;;;;;;;3.96;61.30;101831.88;4986118;28;20145;-81
2023/03/01 10:41:58;;;;;;;17.38;12.48;;;;;;;3.90;61.53;101819.25;4982750;28;20079;-80
2023/03/01 10:44:43;;;;;;;18.03;12.40;;;;;;;4.05;60.71;101815.00;4979994;28;20101;-82
2023/03/01 10:47:20;;;;;;;19.70;12.75;;;;;;;3.98;60.71;101815.34;4980797;28;20354;-80
2023/03/01 10:49:55;;;;;;;18.88;12.90;;;;;;;4.18;60.81;101824.59;4974046;28;20081;-80
2023/03/01 10:52:25;;;;;;;17.67;12.43;;;;;;;4.32;60.05;101811.66;4981623;28;20046;-80
2023/03/01 10:54:55;;;;;;;18.23;12.60;;;;;;;4.30;59.35;101797.97;4980886;28;20085;-80
2023/03/01 10:57:39;;;;;;;17.30;12.30;;;;;;;4.36;59.98;101801.13;4977202;28;20046;-80
2023/03/01 11:00:19;;;;;;;20.92;12.50;;;;;;;4.77;59.84;101799.56;4980931;28;20066;-79
2023/03/01 11:02:51;;;;;;;21.33;12.88;;;;;;;4.50;58.75;101796.84;4977654;28;20055;-82
2023/03/01 11:05:23;;;;;;;19.58;13.25;;;;;;;4.72;58.55;101796.44;4980293;28;20123;-81
2023/03/01 11:07:52;;;;;;;18.35;12.73;;;;;;;4.62;58.54;101796.13;4979013;28;20642;-80
2023/03/01 11:10:21;;;;;;;20.40;13.23;;;;;;;5.03;59.02;101799.78;4983784;28;20061;-81
2023/03/01 11:12:48;;;;;;;19.02;13.07;;;;;;;5.02;58.51;101787.75;4980362;28;20444;-79
2023/03/01 11:15:25;;;;;;;19.27;13.38;;;;;;;5.08;58.08;101777.84;4977382;28;20074;-79
2023/03/01 11:17:55;;;;;;;17.90;12.70;;;;;;;5.03;57.77;101768.66;4973608;28;20097;-79
2023/03/01 11:20:28;;;;;;;18.63;12.40;;;;;;;4.99;57.66;101758.47;4975552;28;20142;-80
2023/03/01 11:22:56;;;;;;;17.75;12.35;;;;;;;5.11;57.69;101750.88;4971576;28;20101;-80
2023/03/01 11:25:27;;;;;;;16.75;12.07;;;;;;;5.24;56.84;101747.41;4972926;28;20517;-80
2023/03/01 11:27:54;;;;;;;18.08;12.30;;;;;;;5.26;57.15;101748.16;4974975;28;20047;-78
2023/03/01 11:30:24;;;;;;;19.75;12.85;;;;;;;5.26;56.69;101749.91;4979737;28;20533;-79
2023/03/01 11:33:02;;;;;;;17.38;12.50;;;;;;;5.32;55.89;101734.81;4983666;28;20070;-78
2023/03/01 11:35:32;;;;;;;19.45;12.82;;;;;;;5.20;56.65;101739.94;4979795;28;20089;-79
2023/03/01 11:38:11;;;;;;;19.48;13.38;;;;;;;5.12;57.08;101742.16;4978979;28;20054;-79
2023/03/01 11:40:46;;;;;;;19.63;13.75;;;;;;;5.08;57.17;101741.53;4982142;28;20042;-80
2023/03/01 11:43:20;;;;;;;19.35;13.38;;;;;;;5.17;56.93;101740.97;4978594;28;20134;-80